sensor_id;sensor_type;location;lat;lon;timestamp;P1;durP1;ratioP1;P2;durP2;ratioP2
39094;SDS011;24840;47.508;19.376;2023-03-01T00:01:13;17.60;;;10.60;;
39094;SDS011;24840;47.508;19.376;2023-03-01T00:03:40;16.80;;;12.20;;
39094;SDS011;24840;47.508;19.376;2023-03-01T00:06:06;16.80;;;11.10;;
39094;SDS011;24840;47.508;19.376;2023-03-01T00:08:32;16.93;;;12.07;;
39094;SDS011;24840;47.508;19.376;2023-03-01T00:13:28;15.90;;;11.43;;
39094;SDS011;24840;47.508;19.376;2023-03-01T00:15:54;19.93;;;11.13;;
39094;SDS011;24840;47.508;19.376;2023-03-01T00:18:20;15.63;;;10.80;;
39094;SDS011;24840;47.508;19.376;2023-03-01T00:20:53;17.23;;;12.03;;
39094;SDS011;24840;47.508;19.376;2023-03-01T00:23:20;19.23;;;12.20;;
39094;SDS011;24840;47.508;19.376;2023-03-01T00:25:47;17.80;;;12.37;;
39094;SDS011;24840;47.508;19.376;2023-03-01T00:28:13;19.80;;;12.97;;
39094;SDS011;24840;47.508;19.376;2023-03-01T00:30:39;16.80;;;12.10;;
39094;SDS011;24840;47.508;19.376;2023-03-01T00:33:05;18.13;;;12.73;;
39094;SDS011;24840;47.508;19.376;2023-03-01T00:35:34;22.00;;;12.37;;
39094;SDS011;24840;47.508;19.376;2023-03-01T00:38:00;20.83;;;13.57;;
39094;SDS011;24840;47.508;19.376;2023-03-01T00:40:26;21.93;;;14.00;;
39094;SDS011;24840;47.508;19.376;2023-03-01T00:42:53;22.37;;;13.23;;
39094;SDS011;24840;47.508;19.376;2023-03-01T00:45:20;18.20;;;11.97;;
39094;SDS011;24840;47.508;19.376;2023-03-01T00:47:46;21.63;;;15.63;;
39094;SDS011;24840;47.508;19.376;2023-03-01T00:50:13;18.10;;;13.23;;
39094;SDS011;24840;47.508;19.376;2023-03-01T00:52:39;17.33;;;12.27;;
39094;SDS011;24840;47.508;19.376;2023-03-01T00:55:05;19.07;;;11.90;;
39094;SDS011;24840;47.508;19.376;2023-03-01T00:57:33;21.07;;;13.83;;
39094;SDS011;24840;47.508;19.376;2023-03-01T00:59:59;21.07;;;13.63;;
39094;SDS011;24840;47.508;19.376;2023-03-01T01:02:25;19.90;;;13.43;;
39094;SDS011;24840;47.508;19.376;2023-03-01T01:04:51;18.97;;;13.47;;
39094;SDS011;24840;47.508;19.376;2023-03-01T01:07:17;21.87;;;13.70;;
39094;SDS011;24840;47.508;19.376;2023-03-01T01:09:45;20.67;;;13.00;;
39094;SDS011;24840;47.508;19.376;2023-03-01T01:12:11;18.57;;;13.20;;
39094;SDS011;24840;47.508;19.376;2023-03-01T01:14:37;24.93;;;13.57;;
39094;SDS011;24840;47.508;19.376;2023-03-01T01:17:04;20.43;;;12.40;;
39094;SDS011;24840;47.508;19.376;2023-03-01T01:19:30;16.43;;;12.70;;
39094;SDS011;24840;47.508;19.376;2023-03-01T01:21:56;21.17;;;12.70;;
39094;SDS011;24840;47.508;19.376;2023-03-01T01:24:21;19.40;;;13.27;;
39094;SDS011;24840;47.508;19.376;2023-03-01T01:26:47;19.87;;;13.60;;
39094;SDS011;24840;47.508;19.376;2023-03-01T01:29:13;22.97;;;14.03;;
39094;SDS011;24840;47.508;19.376;2023-03-01T01:31:40;18.90;;;12.73;;
39094;SDS011;24840;47.508;19.376;2023-03-01T01:34:08;23.27;;;14.20;;
39094;SDS011;24840;47.508;19.376;2023-03-01T01:36:38;22.23;;;14.57;;
39094;SDS011;24840;47.508;19.376;2023-03-01T01:39:04;21.20;;;14.37;;
39094;SDS011;24840;47.508;19.376;2023-03-01T01:41:29;19.27;;;12.90;;
39094;SDS011;24840;47.508;19.376;2023-03-01T01:49:34;22.13;;;13.33;;
39094;SDS011;24840;47.508;19.376;2023-03-01T01:57:22;30.67;;;16.73;;
39094;SDS011;24840;47.508;19.376;2023-03-01T01:59:53;30.37;;;16.47;;
39094;SDS011;24840;47.508;19.376;2023-03-01T02:02:23;33.00;;;18.17;;
39094;SDS011;24840;47.508;19.376;2023-03-01T02:04:51;28.60;;;17.07;;
39094;SDS011;24840;47.508;19.376;2023-03-01T02:07:23;26.03;;;16.97;;
39094;SDS011;24840;47.508;19.376;2023-03-01T02:09:51;24.83;;;15.90;;
39094;SDS011;24840;47.508;19.376;2023-03-01T02:12:19;21.87;;;14.93;;
39094;SDS011;24840;47.508;19.376;2023-03-01T02:14:47;19.33;;;14.30;;
39094;SDS011;24840;47.508;19.376;2023-03-01T02:17:14;27.83;;;17.03;;
39094;SDS011;24840;47.508;19.376;2023-03-01T02:22:37;21.33;;;14.50;;
39094;SDS011;24840;47.508;19.376;2023-03-01T02:30:44;20.63;;;13.23;;
39094;SDS011;24840;47.508;19.376;2023-03-01T02:33:31;21.13;;;13.63;;
39094;SDS011;24840;47.508;19.376;2023-03-01T02:36:02;23.50;;;15.03;;
39094;SDS011;24840;47.508;19.376;2023-03-01T02:38:31;25.23;;;15.43;;
39094;SDS011;24840;47.508;19.376;2023-03-01T02:40:57;19.47;;;14.50;;
39094;SDS011;24840;47.508;19.376;2023-03-01T02:43:25;23.13;;;14.50;;
39094;SDS011;24840;47.508;19.376;2023-03-01T02:45:57;21.70;;;14.33;;
39094;SDS011;24840;47.508;19.376;2023-03-01T02:48:24;24.33;;;14.10;;
39094;SDS011;24840;47.508;19.376;2023-03-01T02:51:04;18.90;;;13.03;;
39094;SDS011;24840;47.508;19.376;2023-03-01T02:53:41;19.73;;;13.37;;
39094;SDS011;24840;47.508;19.376;2023-03-01T02:56:25;21.40;;;13.47;;
39094;SDS011;24840;47.508;19.376;2023-03-01T02:58:51;20.87;;;13.30;;
39094;SDS011;24840;47.508;19.376;2023-03-01T03:01:19;19.23;;;12.73;;
39094;SDS011;24840;47.508;19.376;2023-03-01T03:03:46;20.87;;;14.60;;
39094;SDS011;24840;47.508;19.376;2023-03-01T03:06:12;17.83;;;13.30;;
39094;SDS011;24840;47.508;19.376;2023-03-01T03:08:38;21.13;;;14.57;;
39094;SDS011;24840;47.508;19.376;2023-03-01T03:11:04;22.83;;;15.13;;
39094;SDS011;24840;47.508;19.376;2023-03-01T03:13:30;24.13;;;15.70;;
39094;SDS011;24840;47.508;19.376;2023-03-01T03:15:56;25.50;;;16.70;;
39094;SDS011;24840;47.508;19.376;2023-03-01T03:18:23;25.57;;;15.50;;
39094;SDS011;24840;47.508;19.376;2023-03-01T03:20:52;19.53;;;13.40;;
39094;SDS011;24840;47.508;19.376;2023-03-01T03:23:19;21.07;;;14.63;;
39094;SDS011;24840;47.508;19.376;2023-03-01T03:25:47;23.10;;;14.13;;
39094;SDS011;24840;47.508;19.376;2023-03-01T03:28:15;23.33;;;14.67;;
39094;SDS011;24840;47.508;19.376;2023-03-01T03:30:41;20.63;;;14.67;;
39094;SDS011;24840;47.508;19.376;2023-03-01T03:33:08;26.37;;;15.00;;
39094;SDS011;24840;47.508;19.376;2023-03-01T03:35:40;18.70;;;13.57;;
39094;SDS011;24840;47.508;19.376;2023-03-01T03:38:09;22.17;;;14.83;;
39094;SDS011;24840;47.508;19.376;2023-03-01T03:40:41;20.13;;;13.50;;
39094;SDS011;24840;47.508;19.376;2023-03-01T03:43:16;22.77;;;15.27;;
39094;SDS011;24840;47.508;19.376;2023-03-01T03:45:44;17.20;;;13.02;;
39094;SDS011;24840;47.508;19.376;2023-03-01T03:48:11;20.17;;;14.07;;
39094;SDS011;24840;47.508;19.376;2023-03-01T03:50:37;19.30;;;14.90;;
39094;SDS011;24840;47.508;19.376;2023-03-01T03:53:05;20.77;;;14.17;;
39094;SDS011;24840;47.508;19.376;2023-03-01T03:55:36;22.17;;;14.98;;
39094;SDS011;24840;47.508;19.376;2023-03-01T03:58:04;19.20;;;13.80;;
39094;SDS011;24840;47.508;19.376;2023-03-01T04:00:33;20.20;;;14.30;;
39094;SDS011;24840;47.508;19.376;2023-03-01T04:03:00;19.17;;;13.10;;
39094;SDS011;24840;47.508;19.376;2023-03-01T04:05:26;21.17;;;12.77;;
39094;SDS011;24840;47.508;19.376;2023-03-01T04:07:52;20.67;;;12.17;;
39094;SDS011;24840;47.508;19.376;2023-03-01T04:10:26;20.30;;;13.80;;
39094;SDS011;24840;47.508;19.376;2023-03-01T04:12:53;19.33;;;13.70;;
39094;SDS011;24840;47.508;19.376;2023-03-01T04:15:21;16.53;;;12.67;;
39094;SDS011;24840;47.508;19.376;2023-03-01T04:17:49;19.90;;;12.63;;
39094;SDS011;24840;47.508;19.376;2023-03-01T04:20:21;17.43;;;11.50;;
39094;SDS011;24840;47.508;19.376;2023-03-01T04:23:03;18.07;;;12.77;;
39094;SDS011;24840;47.508;19.376;2023-03-01T04:28:28;18.97;;;12.97;;
39094;SDS011;24840;47.508;19.376;2023-03-01T04:31:01;15.47;;;11.53;;
39094;SDS011;24840;47.508;19.376;2023-03-01T04:33:37;16.43;;;11.77;;
39094;SDS011;24840;47.508;19.376;2023-03-01T04:36:14;17.67;;;12.23;;
39094;SDS011;24840;47.508;19.376;2023-03-01T04:38:41;17.40;;;12.37;;
39094;SDS011;24840;47.508;19.376;2023-03-01T04:41:12;18.57;;;12.43;;
39094;SDS011;24840;47.508;19.376;2023-03-01T04:43:39;16.70;;;11.63;;
39094;SDS011;24840;47.508;19.376;2023-03-01T04:46:06;17.03;;;10.93;;
39094;SDS011;24840;47.508;19.376;2023-03-01T04:48:37;16.50;;;11.83;;
39094;SDS011;24840;47.508;19.376;2023-03-01T04:51:05;14.23;;;12.03;;
39094;SDS011;24840;47.508;19.376;2023-03-01T04:53:32;17.80;;;11.97;;
39094;SDS011;24840;47.508;19.376;2023-03-01T04:56:01;17.53;;;11.80;;
39094;SDS011;24840;47.508;19.376;2023-03-01T04:58:27;18.87;;;11.73;;
39094;SDS011;24840;47.508;19.376;2023-03-01T05:00:53;20.80;;;12.37;;
39094;SDS011;24840;47.508;19.376;2023-03-01T05:03:20;17.90;;;12.43;;
39094;SDS011;24840;47.508;19.376;2023-03-01T05:05:47;18.57;;;13.10;;
39094;SDS011;24840;47.508;19.376;2023-03-01T05:08:14;20.90;;;12.90;;
39094;SDS011;24840;47.508;19.376;2023-03-01T05:10:50;17.27;;;12.00;;
39094;SDS011;24840;47.508;19.376;2023-03-01T05:13:17;20.03;;;13.60;;
39094;SDS011;24840;47.508;19.376;2023-03-01T05:15:47;17.17;;;12.67;;
39094;SDS011;24840;47.508;19.376;2023-03-01T05:18:18;16.80;;;12.93;;
39094;SDS011;24840;47.508;19.376;2023-03-01T05:20:44;18.03;;;11.93;;
39094;SDS011;24840;47.508;19.376;2023-03-01T05:23:09;16.87;;;10.93;;
39094;SDS011;24840;47.508;19.376;2023-03-01T05:25:35;19.47;;;12.50;;
39094;SDS011;24840;47.508;19.376;2023-03-01T05:28:05;20.53;;;12.40;;
39094;SDS011;24840;47.508;19.376;2023-03-01T05:30:35;20.70;;;13.00;;
39094;SDS011;24840;47.508;19.376;2023-03-01T05:33:01;19.37;;;13.40;;
39094;SDS011;24840;47.508;19.376;2023-03-01T05:35:27;17.50;;;11.53;;
39094;SDS011;24840;47.508;19.376;2023-03-01T05:37:54;24.40;;;12.20;;
39094;SDS011;24840;47.508;19.376;2023-03-01T05:40:21;21.47;;;13.97;;
39094;SDS011;24840;47.508;19.376;2023-03-01T05:42:50;21.93;;;13.17;;
39094;SDS011;24840;47.508;19.376;2023-03-01T05:45:20;15.80;;;10.63;;
39094;SDS011;24840;47.508;19.376;2023-03-01T05:47:47;17.03;;;12.17;;
39094;SDS011;24840;47.508;19.376;2023-03-01T05:52:57;21.73;;;13.43;;
39094;SDS011;24840;47.508;19.376;2023-03-01T05:55:25;22.98;;;12.68;;
39094;SDS011;24840;47.508;19.376;2023-03-01T05:57:51;17.33;;;13.23;;
39094;SDS011;24840;47.508;19.376;2023-03-01T06:00:18;28.67;;;13.40;;
39094;SDS011;24840;47.508;19.376;2023-03-01T06:02:47;21.23;;;13.57;;
39094;SDS011;24840;47.508;19.376;2023-03-01T06:05:14;20.87;;;13.30;;
39094;SDS011;24840;47.508;19.376;2023-03-01T06:07:40;21.37;;;13.40;;
39094;SDS011;24840;47.508;19.376;2023-03-01T06:10:06;19.43;;;15.00;;
39094;SDS011;24840;47.508;19.376;2023-03-01T06:12:34;24.30;;;15.63;;
39094;SDS011;24840;47.508;19.376;2023-03-01T06:15:01;31.97;;;16.33;;
39094;SDS011;24840;47.508;19.376;2023-03-01T06:17:29;19.57;;;14.50;;
39094;SDS011;24840;47.508;19.376;2023-03-01T06:19:57;34.07;;;17.37;;
39094;SDS011;24840;47.508;19.376;2023-03-01T06:22:23;26.73;;;15.10;;
39094;SDS011;24840;47.508;19.376;2023-03-01T06:24:48;21.70;;;15.17;;
39094;SDS011;24840;47.508;19.376;2023-03-01T06:27:14;23.83;;;13.47;;
39094;SDS011;24840;47.508;19.376;2023-03-01T06:29:41;26.40;;;15.87;;
39094;SDS011;24840;47.508;19.376;2023-03-01T06:32:07;27.73;;;14.93;;
39094;SDS011;24840;47.508;19.376;2023-03-01T06:34:33;39.97;;;17.23;;
39094;SDS011;24840;47.508;19.376;2023-03-01T06:36:59;25.80;;;14.17;;
39094;SDS011;24840;47.508;19.376;2023-03-01T06:39:24;24.27;;;14.27;;
39094;SDS011;24840;47.508;19.376;2023-03-01T06:41:53;34.07;;;14.77;;
39094;SDS011;24840;47.508;19.376;2023-03-01T06:44:18;21.37;;;15.57;;
39094;SDS011;24840;47.508;19.376;2023-03-01T06:46:44;21.50;;;13.80;;
39094;SDS011;24840;47.508;19.376;2023-03-01T06:49:10;20.43;;;13.40;;
39094;SDS011;24840;47.508;19.376;2023-03-01T06:51:36;20.03;;;13.60;;
39094;SDS011;24840;47.508;19.376;2023-03-01T06:54:02;22.17;;;14.00;;
39094;SDS011;24840;47.508;19.376;2023-03-01T06:56:29;19.53;;;14.27;;
39094;SDS011;24840;47.508;19.376;2023-03-01T06:58:55;21.97;;;15.13;;
39094;SDS011;24840;47.508;19.376;2023-03-01T07:01:21;16.93;;;11.63;;
39094;SDS011;24840;47.508;19.376;2023-03-01T07:03:46;21.73;;;13.67;;
39094;SDS011;24840;47.508;19.376;2023-03-01T07:06:12;15.37;;;11.80;;
39094;SDS011;24840;47.508;19.376;2023-03-01T07:08:38;16.83;;;11.60;;
39094;SDS011;24840;47.508;19.376;2023-03-01T07:11:04;16.43;;;11.87;;
39094;SDS011;24840;47.508;19.376;2023-03-01T07:13:30;14.77;;;10.57;;
39094;SDS011;24840;47.508;19.376;2023-03-01T07:15:56;19.87;;;12.83;;
39094;SDS011;24840;47.508;19.376;2023-03-01T07:18:22;21.80;;;10.70;;
39094;SDS011;24840;47.508;19.376;2023-03-01T07:20:48;23.07;;;9.97;;
39094;SDS011;24840;47.508;19.376;2023-03-01T07:23:14;13.57;;;10.10;;
39094;SDS011;24840;47.508;19.376;2023-03-01T07:25:40;12.90;;;9.70;;
39094;SDS011;24840;47.508;19.376;2023-03-01T07:28:06;13.37;;;9.63;;
39094;SDS011;24840;47.508;19.376;2023-03-01T07:30:32;11.93;;;9.83;;
39094;SDS011;24840;47.508;19.376;2023-03-01T07:32:58;13.47;;;9.33;;
39094;SDS011;24840;47.508;19.376;2023-03-01T07:35:27;14.53;;;9.57;;
39094;SDS011;24840;47.508;19.376;2023-03-01T07:37:53;12.10;;;8.67;;
39094;SDS011;24840;47.508;19.376;2023-03-01T07:40:19;11.03;;;7.63;;
39094;SDS011;24840;47.508;19.376;2023-03-01T07:42:45;11.53;;;8.83;;
39094;SDS011;24840;47.508;19.376;2023-03-01T07:45:11;11.83;;;8.10;;
39094;SDS011;24840;47.508;19.376;2023-03-01T07:47:38;10.57;;;8.73;;
39094;SDS011;24840;47.508;19.376;2023-03-01T07:50:04;11.60;;;8.37;;
39094;SDS011;24840;47.508;19.376;2023-03-01T07:52:30;9.47;;;7.50;;
39094;SDS011;24840;47.508;19.376;2023-03-01T07:54:56;11.30;;;7.93;;
39094;SDS011;24840;47.508;19.376;2023-03-01T07:57:22;13.10;;;7.77;;
39094;SDS011;24840;47.508;19.376;2023-03-01T07:59:48;10.00;;;7.77;;
39094;SDS011;24840;47.508;19.376;2023-03-01T08:02:14;11.00;;;7.80;;
39094;SDS011;24840;47.508;19.376;2023-03-01T08:04:40;8.90;;;6.63;;
39094;SDS011;24840;47.508;19.376;2023-03-01T08:07:07;12.03;;;8.17;;
39094;SDS011;24840;47.508;19.376;2023-03-01T08:09:34;10.47;;;7.67;;
39094;SDS011;24840;47.508;19.376;2023-03-01T08:12:01;11.33;;;8.23;;
39094;SDS011;24840;47.508;19.376;2023-03-01T08:14:28;11.53;;;8.53;;
39094;SDS011;24840;47.508;19.376;2023-03-01T08:16:53;10.50;;;8.00;;
39094;SDS011;24840;47.508;19.376;2023-03-01T08:19:20;9.87;;;7.77;;
39094;SDS011;24840;47.508;19.376;2023-03-01T08:21:45;11.83;;;8.23;;
39094;SDS011;24840;47.508;19.376;2023-03-01T08:24:11;9.93;;;6.27;;
39094;SDS011;24840;47.508;19.376;2023-03-01T08:26:37;14.47;;;7.83;;
39094;SDS011;24840;47.508;19.376;2023-03-01T08:29:03;9.10;;;6.07;;
39094;SDS011;24840;47.508;19.376;2023-03-01T08:31:31;10.20;;;6.40;;
39094;SDS011;24840;47.508;19.376;2023-03-01T08:34:02;10.63;;;7.10;;
39094;SDS011;24840;47.508;19.376;2023-03-01T08:36:31;8.73;;;7.00;;
39094;SDS011;24840;47.508;19.376;2023-03-01T08:38:58;9.23;;;7.43;;
39094;SDS011;24840;47.508;19.376;2023-03-01T08:41:24;9.50;;;6.90;;
39094;SDS011;24840;47.508;19.376;2023-03-01T08:43:50;9.57;;;6.83;;
39094;SDS011;24840;47.508;19.376;2023-03-01T08:46:17;10.13;;;7.00;;
39094;SDS011;24840;47.508;19.376;2023-03-01T08:48:43;12.47;;;8.63;;
39094;SDS011;24840;47.508;19.376;2023-03-01T08:51:12;9.90;;;7.20;;
39094;SDS011;24840;47.508;19.376;2023-03-01T08:53:40;8.43;;;7.20;;
39094;SDS011;24840;47.508;19.376;2023-03-01T08:56:06;11.93;;;9.23;;
39094;SDS011;24840;47.508;19.376;2023-03-01T08:58:33;10.73;;;8.73;;
39094;SDS011;24840;47.508;19.376;2023-03-01T09:00:59;12.47;;;8.13;;
39094;SDS011;24840;47.508;19.376;2023-03-01T09:03:25;12.33;;;8.93;;
39094;SDS011;24840;47.508;19.376;2023-03-01T09:05:52;9.43;;;8.30;;
39094;SDS011;24840;47.508;19.376;2023-03-01T09:08:18;13.20;;;8.35;;
39094;SDS011;24840;47.508;19.376;2023-03-01T09:10:45;10.73;;;8.05;;
39094;SDS011;24840;47.508;19.376;2023-03-01T09:13:11;13.18;;;9.45;;
39094;SDS011;24840;47.508;19.376;2023-03-01T09:15:37;30.08;;;9.48;;
39094;SDS011;24840;47.508;19.376;2023-03-01T09:18:03;10.63;;;7.90;;
39094;SDS011;24840;47.508;19.376;2023-03-01T09:20:30;10.32;;;8.38;;
39094;SDS011;24840;47.508;19.376;2023-03-01T09:22:56;10.27;;;8.18;;
39094;SDS011;24840;47.508;19.376;2023-03-01T09:25:23;12.82;;;9.88;;
39094;SDS011;24840;47.508;19.376;2023-03-01T09:27:52;11.02;;;8.35;;
39094;SDS011;24840;47.508;19.376;2023-03-01T09:30:18;10.50;;;7.82;;
39094;SDS011;24840;47.508;19.376;2023-03-01T09:32:45;10.55;;;6.60;;
39094;SDS011;24840;47.508;19.376;2023-03-01T09:35:11;9.93;;;7.22;;
39094;SDS011;24840;47.508;19.376;2023-03-01T09:37:37;9.48;;;6.47;;
39094;SDS011;24840;47.508;19.376;2023-03-01T09:40:04;7.53;;;6.45;;
39094;SDS011;24840;47.508;19.376;2023-03-01T09:42:32;8.15;;;6.05;;
39094;SDS011;24840;47.508;19.376;2023-03-01T09:47:30;9.15;;;6.78;;
39094;SDS011;24840;47.508;19.376;2023-03-01T09:50:18;8.73;;;6.63;;
39094;SDS011;24840;47.508;19.376;2023-03-01T09:53:02;9.27;;;7.07;;
39094;SDS011;24840;47.508;19.376;2023-03-01T10:00:51;8.40;;;7.13;;
39094;SDS011;24840;47.508;19.376;2023-03-01T10:11:26;10.18;;;7.75;;
39094;SDS011;24840;47.508;19.376;2023-03-01T10:14:05;8.48;;;7.20;;
39094;SDS011;24840;47.508;19.376;2023-03-01T10:16:53;12.30;;;8.48;;
39094;SDS011;24840;47.508;19.376;2023-03-01T10:21:52;9.05;;;7.63;;
39094;SDS011;24840;47.508;19.376;2023-03-01T10:24:19;10.30;;;7.75;;
39094;SDS011;24840;47.508;19.376;2023-03-01T10:29:22;9.18;;;7.22;;
39094;SDS011;24840;47.508;19.376;2023-03-01T10:31:52;8.77;;;6.47;;
39094;SDS011;24840;47.508;19.376;2023-03-01T10:34:27;8.13;;;6.60;;
39094;SDS011;24840;47.508;19.376;2023-03-01T10:36:56;7.28;;;5.97;;
39094;SDS011;24840;47.508;19.376;2023-03-01T10:39:26;7.25;;;5.60;;
39094;SDS011;24840;47.508;19.376;2023-03-01T10:41:54;7.38;;;6.57;;
39094;SDS011;24840;47.508;19.376;2023-03-01T10:47:12;9.38;;;6.65;;
39094;SDS011;24840;47.508;19.376;2023-03-01T10:50:01;8.48;;;6.22;;
39094;SDS011;24840;47.508;19.376;2023-03-01T10:52:30;7.78;;;6.07;;
39094;SDS011;24840;47.508;19.376;2023-03-01T10:58:38;6.40;;;5.30;;
39094;SDS011;24840;47.508;19.376;2023-03-01T11:00:47;6.70;;;5.35;;
39094;SDS011;24840;47.508;19.376;2023-03-01T11:03:25;9.13;;;6.57;;
39094;SDS011;24840;47.508;19.376;2023-03-01T11:06:02;8.95;;;6.38;;
39094;SDS011;24840;47.508;19.376;2023-03-01T11:08:35;8.40;;;6.78;;
39094;SDS011;24840;47.508;19.376;2023-03-01T11:11:07;7.07;;;5.45;;
39094;SDS011;24840;47.508;19.376;2023-03-01T11:13:53;6.47;;;5.10;;
39094;SDS011;24840;47.508;19.376;2023-03-01T11:16:24;7.15;;;5.93;;
39094;SDS011;24840;47.508;19.376;2023-03-01T11:18:57;6.10;;;5.40;;
39094;SDS011;24840;47.508;19.376;2023-03-01T11:24:15;8.18;;;5.82;;
39094;SDS011;24840;47.508;19.376;2023-03-01T11:26:44;8.35;;;5.70;;
39094;SDS011;24840;47.508;19.376;2023-03-01T11:29:21;8.70;;;6.35;;
39094;SDS011;24840;47.508;19.376;2023-03-01T11:32:03;6.50;;;5.45;;
39094;SDS011;24840;47.508;19.376;2023-03-01T11:34:36;6.40;;;5.35;;
39094;SDS011;24840;47.508;19.376;2023-03-01T11:37:20;7.53;;;5.18;;
39094;SDS011;24840;47.508;19.376;2023-03-01T11:40:22;6.10;;;5.13;;
39094;SDS011;24840;47.508;19.376;2023-03-01T11:45:40;7.18;;;5.30;;
39094;SDS011;24840;47.508;19.376;2023-03-01T11:51:19;5.63;;;4.50;;
39094;SDS011;24840;47.508;19.376;2023-03-01T11:54:06;4.88;;;4.35;;
39094;SDS011;24840;47.508;19.376;2023-03-01T12:05:06;5.85;;;4.38;;
39094;SDS011;24840;47.508;19.376;2023-03-01T12:10:36;10.15;;;5.18;;
39094;SDS011;24840;47.508;19.376;2023-03-01T12:19:00;8.50;;;5.05;;
39094;SDS011;24840;47.508;19.376;2023-03-01T12:29:59;10.65;;;5.68;;
39094;SDS011;24840;47.508;19.376;2023-03-01T12:35:40;6.55;;;4.80;;
39094;SDS011;24840;47.508;19.376;2023-03-01T12:51:26;6.53;;;5.68;;
39094;SDS011;24840;47.508;19.376;2023-03-01T12:53:55;11.65;;;5.57;;
39094;SDS011;24840;47.508;19.376;2023-03-01T12:56:23;7.28;;;5.22;;
39094;SDS011;24840;47.508;19.376;2023-03-01T13:04:43;5.45;;;4.25;;
39094;SDS011;24840;47.508;19.376;2023-03-01T13:20:47;7.68;;;5.10;;
39094;SDS011;24840;47.508;19.376;2023-03-01T13:23:28;9.23;;;5.93;;
39094;SDS011;24840;47.508;19.376;2023-03-01T13:26:08;5.05;;;4.47;;
39094;SDS011;24840;47.508;19.376;2023-03-01T13:28:40;8.90;;;5.32;;
39094;SDS011;24840;47.508;19.376;2023-03-01T13:33:47;5.97;;;4.60;;
39094;SDS011;24840;47.508;19.376;2023-03-01T13:38:57;7.10;;;4.28;;
39094;SDS011;24840;47.508;19.376;2023-03-01T13:44:25;6.00;;;3.70;;
39094;SDS011;24840;47.508;19.376;2023-03-01T13:46:59;4.28;;;2.97;;
39094;SDS011;24840;47.508;19.376;2023-03-01T13:49:36;4.20;;;3.05;;
39094;SDS011;24840;47.508;19.376;2023-03-01T13:54:59;5.35;;;3.38;;
39094;SDS011;24840;47.508;19.376;2023-03-01T13:57:29;5.07;;;3.72;;
39094;SDS011;24840;47.508;19.376;2023-03-01T13:59:59;5.97;;;4.00;;
39094;SDS011;24840;47.508;19.376;2023-03-01T14:02:24;4.45;;;3.42;;
39094;SDS011;24840;47.508;19.376;2023-03-01T14:04:57;6.43;;;3.63;;
39094;SDS011;24840;47.508;19.376;2023-03-01T14:07:24;5.10;;;2.70;;
39094;SDS011;24840;47.508;19.376;2023-03-01T14:09:55;5.28;;;2.97;;
39094;SDS011;24840;47.508;19.376;2023-03-01T14:20:54;5.47;;;3.25;;
39094;SDS011;24840;47.508;19.376;2023-03-01T14:23:20;5.75;;;3.38;;
39094;SDS011;24840;47.508;19.376;2023-03-01T14:25:48;4.28;;;2.50;;
39094;SDS011;24840;47.508;19.376;2023-03-01T14:30:55;7.75;;;3.05;;
39094;SDS011;24840;47.508;19.376;2023-03-01T14:33:27;3.80;;;3.07;;
39094;SDS011;24840;47.508;19.376;2023-03-01T14:36:02;8.68;;;4.15;;
39094;SDS011;24840;47.508;19.376;2023-03-01T14:38:30;9.98;;;7.85;;
39094;SDS011;24840;47.508;19.376;2023-03-01T14:41:00;7.22;;;3.40;;
39094;SDS011;24840;47.508;19.376;2023-03-01T14:43:30;7.90;;;3.97;;
39094;SDS011;24840;47.508;19.376;2023-03-01T14:45:56;4.45;;;2.80;;
39094;SDS011;24840;47.508;19.376;2023-03-01T14:48:22;7.15;;;3.65;;
39094;SDS011;24840;47.508;19.376;2023-03-01T14:50:49;3.90;;;2.83;;
39094;SDS011;24840;47.508;19.376;2023-03-01T14:53:17;8.00;;;3.90;;
39094;SDS011;24840;47.508;19.376;2023-03-01T14:55:47;8.32;;;3.70;;
39094;SDS011;24840;47.508;19.376;2023-03-01T14:58:18;8.02;;;3.65;;
39094;SDS011;24840;47.508;19.376;2023-03-01T15:00:50;10.70;;;4.55;;
39094;SDS011;24840;47.508;19.376;2023-03-01T15:03:22;6.50;;;3.80;;
39094;SDS011;24840;47.508;19.376;2023-03-01T15:05:58;5.15;;;3.97;;
39094;SDS011;24840;47.508;19.376;2023-03-01T15:08:26;6.18;;;4.50;;
39094;SDS011;24840;47.508;19.376;2023-03-01T15:13:41;8.18;;;4.45;;
39094;SDS011;24840;47.508;19.376;2023-03-01T15:18:33;7.90;;;4.43;;
39094;SDS011;24840;47.508;19.376;2023-03-01T15:21:34;7.28;;;3.92;;
39094;SDS011;24840;47.508;19.376;2023-03-01T15:24:03;12.07;;;4.28;;
39094;SDS011;24840;47.508;19.376;2023-03-01T15:26:43;51.40;;;7.53;;
39094;SDS011;24840;47.508;19.376;2023-03-01T15:29:25;11.48;;;4.72;;
39094;SDS011;24840;47.508;19.376;2023-03-01T15:32:02;8.80;;;4.95;;
39094;SDS011;24840;47.508;19.376;2023-03-01T15:34:35;21.15;;;5.43;;
39094;SDS011;24840;47.508;19.376;2023-03-01T15:37:03;7.55;;;4.57;;
39094;SDS011;24840;47.508;19.376;2023-03-01T15:39:56;12.70;;;4.32;;
39094;SDS011;24840;47.508;19.376;2023-03-01T15:47:34;10.63;;;5.07;;
39094;SDS011;24840;47.508;19.376;2023-03-01T15:50:03;6.40;;;3.90;;
39094;SDS011;24840;47.508;19.376;2023-03-01T15:52:39;8.55;;;4.90;;
39094;SDS011;24840;47.508;19.376;2023-03-01T15:55:14;10.20;;;4.70;;
39094;SDS011;24840;47.508;19.376;2023-03-01T15:57:42;10.35;;;4.88;;
39094;SDS011;24840;47.508;19.376;2023-03-01T16:00:10;10.07;;;4.35;;
39094;SDS011;24840;47.508;19.376;2023-03-01T16:02:38;11.02;;;4.18;;
39094;SDS011;24840;47.508;19.376;2023-03-01T16:05:08;9.70;;;4.40;;
39094;SDS011;24840;47.508;19.376;2023-03-01T16:07:46;9.00;;;4.20;;
39094;SDS011;24840;47.508;19.376;2023-03-01T16:10:12;6.35;;;4.50;;
39094;SDS011;24840;47.508;19.376;2023-03-01T16:12:38;5.00;;;3.70;;
39094;SDS011;24840;47.508;19.376;2023-03-01T16:15:04;12.82;;;4.68;;
39094;SDS011;24840;47.508;19.376;2023-03-01T16:17:37;8.38;;;3.83;;
39094;SDS011;24840;47.508;19.376;2023-03-01T16:20:03;5.35;;;3.53;;
39094;SDS011;24840;47.508;19.376;2023-03-01T16:22:29;10.00;;;3.75;;
39094;SDS011;24840;47.508;19.376;2023-03-01T16:24:55;6.22;;;4.32;;
39094;SDS011;24840;47.508;19.376;2023-03-01T16:27:21;9.82;;;3.95;;
39094;SDS011;24840;47.508;19.376;2023-03-01T16:29:47;16.20;;;4.32;;
39094;SDS011;24840;47.508;19.376;2023-03-01T16:32:13;10.48;;;3.78;;
39094;SDS011;24840;47.508;19.376;2023-03-01T16:34:38;10.88;;;5.88;;
39094;SDS011;24840;47.508;19.376;2023-03-01T16:37:04;6.10;;;3.65;;
39094;SDS011;24840;47.508;19.376;2023-03-01T16:39:30;5.35;;;3.45;;
39094;SDS011;24840;47.508;19.376;2023-03-01T16:41:56;9.80;;;3.85;;
39094;SDS011;24840;47.508;19.376;2023-03-01T16:44:24;23.52;;;4.20;;
39094;SDS011;24840;47.508;19.376;2023-03-01T16:46:50;5.93;;;3.70;;
39094;SDS011;24840;47.508;19.376;2023-03-01T16:49:16;6.95;;;3.10;;
39094;SDS011;24840;47.508;19.376;2023-03-01T16:51:41;6.50;;;3.58;;
39094;SDS011;24840;47.508;19.376;2023-03-01T16:54:09;4.07;;;2.88;;
39094;SDS011;24840;47.508;19.376;2023-03-01T16:56:35;7.07;;;3.35;;
39094;SDS011;24840;47.508;19.376;2023-03-01T16:59:03;5.43;;;2.78;;
39094;SDS011;24840;47.508;19.376;2023-03-01T17:01:30;4.25;;;3.13;;
39094;SDS011;24840;47.508;19.376;2023-03-01T17:04:02;6.28;;;3.50;;
39094;SDS011;24840;47.508;19.376;2023-03-01T17:06:28;4.82;;;3.13;;